sensor_id;sensor_type;location;lat;lon;timestamp;temperature;humidity
6429;DHT22;3247;48.946;10.220;2022-12-10T00:00:01;-0.20;99.90
6429;DHT22;3247;48.946;10.220;2022-12-10T00:02:26;-0.20;99.90
6429;DHT22;3247;48.946;10.220;2022-12-10T00:04:52;-0.40;99.90
6429;DHT22;3247;48.946;10.220;2022-12-10T00:07:17;-0.40;99.90
6429;DHT22;3247;48.946;10.220;2022-12-10T00:09:43;-0.40;99.90
6429;DHT22;3247;48.946;10.220;2022-12-10T00:12:08;-0.40;99.90
6429;DHT22;3247;48.946;10.220;2022-12-10T00:14:33;-0.40;99.90
6429;DHT22;3247;48.946;10.220;2022-12-10T00:17:11;-0.40;99.90
6429;DHT22;3247;48.946;10.220;2022-12-10T00:19:37;-0.40;99.90
6429;DHT22;3247;48.946;10.220;2022-12-10T00:22:02;-0.40;99.90
6429;DHT22;3247;48.946;10.220;2022-12-10T00:24:27;-0.40;99.90
6429;DHT22;3247;48.946;10.220;2022-12-10T00:26:53;-0.40;99.90
6429;DHT22;3247;48.946;10.220;2022-12-10T00:29:18;-0.40;99.90
6429;DHT22;3247;48.946;10.220;2022-12-10T00:31:44;-0.30;99.90
6429;DHT22;3247;48.946;10.220;2022-12-10T00:34:10;-0.40;99.90
6429;DHT22;3247;48.946;10.220;2022-12-10T00:36:38;-0.40;99.90
6429;DHT22;3247;48.946;10.220;2022-12-10T00:39:03;-0.40;99.90
6429;DHT22;3247;48.946;10.220;2022-12-10T00:41:29;-0.40;99.90
6429;DHT22;3247;48.946;10.220;2022-12-10T00:43:55;-0.30;99.90
6429;DHT22;3247;48.946;10.220;2022-12-10T00:46:32;-0.40;99.90
6429;DHT22;3247;48.946;10.220;2022-12-10T00:48:58;-0.30;99.90
6429;DHT22;3247;48.946;10.220;2022-12-10T00:51:24;-0.40;99.90
6429;DHT22;3247;48.946;10.220;2022-12-10T00:53:52;-0.40;99.90
6429;DHT22;3247;48.946;10.220;2022-12-10T00:56:20;-0.40;99.90
6429;DHT22;3247;48.946;10.220;2022-12-10T00:58:46;-0.30;99.90
6429;DHT22;3247;48.946;10.220;2022-12-10T01:01:17;-0.30;99.90
6429;DHT22;3247;48.946;10.220;2022-12-10T01:03:43;-0.30;99.90
6429;DHT22;3247;48.946;10.220;2022-12-10T01:06:13;-0.30;99.90
6429;DHT22;3247;48.946;10.220;2022-12-10T01:08:46;-0.30;99.90
6429;DHT22;3247;48.946;10.220;2022-12-10T01:11:13;-0.30;99.90
6429;DHT22;3247;48.946;10.220;2022-12-10T01:13:39;-0.40;99.90
6429;DHT22;3247;48.946;10.220;2022-12-10T01:22:12;-0.40;99.90
6429;DHT22;3247;48.946;10.220;2022-12-10T01:24:37;-0.40;99.90
6429;DHT22;3247;48.946;10.220;2022-12-10T01:27:03;-0.40;99.90
6429;DHT22;3247;48.946;10.220;2022-12-10T01:29:28;-0.40;99.90
6429;DHT22;3247;48.946;10.220;2022-12-10T01:31:55;-0.40;99.90
6429;DHT22;3247;48.946;10.220;2022-12-10T01:34:20;-0.40;99.90
6429;DHT22;3247;48.946;10.220;2022-12-10T01:36:48;-0.40;99.90
6429;DHT22;3247;48.946;10.220;2022-12-10T01:39:14;-0.40;99.90
6429;DHT22;3247;48.946;10.220;2022-12-10T01:41:41;-0.40;99.90
6429;DHT22;3247;48.946;10.220;2022-12-10T01:49:37;-0.30;99.90
6429;DHT22;3247;48.946;10.220;2022-12-10T01:52:03;-0.30;99.90
6429;DHT22;3247;48.946;10.220;2022-12-10T01:54:34;-0.30;99.90
6429;DHT22;3247;48.946;10.220;2022-12-10T01:57:05;-0.40;99.90
6429;DHT22;3247;48.946;10.220;2022-12-10T01:59:31;-0.40;99.90
6429;DHT22;3247;48.946;10.220;2022-12-10T02:04:31;0.60;99.90
6429;DHT22;3247;48.946;10.220;2022-12-10T02:07:00;-0.30;99.90
6429;DHT22;3247;48.946;10.220;2022-12-10T02:12:15;-0.30;99.90
6429;DHT22;3247;48.946;10.220;2022-12-10T02:20:16;-0.40;99.90
6429;DHT22;3247;48.946;10.220;2022-12-10T02:22:48;-0.40;99.90
6429;DHT22;3247;48.946;10.220;2022-12-10T02:25:15;-0.40;99.90
6429;DHT22;3247;48.946;10.220;2022-12-10T02:27:54;-0.40;99.90
6429;DHT22;3247;48.946;10.220;2022-12-10T02:30:22;-0.50;99.90
6429;DHT22;3247;48.946;10.220;2022-12-10T02:32:48;-0.50;99.90
6429;DHT22;3247;48.946;10.220;2022-12-10T02:35:16;-0.50;99.90
6429;DHT22;3247;48.946;10.220;2022-12-10T02:37:45;-0.50;99.90
6429;DHT22;3247;48.946;10.220;2022-12-10T02:40:13;-0.50;99.90
6429;DHT22;3247;48.946;10.220;2022-12-10T02:42:40;-0.40;99.90
6429;DHT22;3247;48.946;10.220;2022-12-10T02:45:08;-0.40;99.90
6429;DHT22;3247;48.946;10.220;2022-12-10T02:47:33;-0.40;99.90
6429;DHT22;3247;48.946;10.220;2022-12-10T02:49:59;-0.40;99.90
6429;DHT22;3247;48.946;10.220;2022-12-10T02:52:25;-0.50;99.90
6429;DHT22;3247;48.946;10.220;2022-12-10T02:54:51;-0.50;99.90
6429;DHT22;3247;48.946;10.220;2022-12-10T02:57:27;-0.40;99.90
6429;DHT22;3247;48.946;10.220;2022-12-10T03:00:00;-0.50;99.90
6429;DHT22;3247;48.946;10.220;2022-12-10T03:05:03;-0.50;99.90
6429;DHT22;3247;48.946;10.220;2022-12-10T03:07:35;-0.50;99.90
6429;DHT22;3247;48.946;10.220;2022-12-10T03:10:14;-0.50;99.90
6429;DHT22;3247;48.946;10.220;2022-12-10T03:12:42;-0.50;99.90
6429;DHT22;3247;48.946;10.220;2022-12-10T03:15:10;-0.50;99.90
6429;DHT22;3247;48.946;10.220;2022-12-10T03:17:37;-0.50;99.90
6429;DHT22;3247;48.946;10.220;2022-12-10T03:20:03;-0.50;99.90
6429;DHT22;3247;48.946;10.220;2022-12-10T03:22:29;-0.40;99.90
6429;DHT22;3247;48.946;10.220;2022-12-10T03:24:57;-0.50;99.90
6429;DHT22;3247;48.946;10.220;2022-12-10T03:27:23;-0.50;99.90
6429;DHT22;3247;48.946;10.220;2022-12-10T03:29:53;-0.50;99.90
6429;DHT22;3247;48.946;10.220;2022-12-10T03:32:20;-0.60;99.90
6429;DHT22;3247;48.946;10.220;2022-12-10T03:34:47;-0.50;99.90
6429;DHT22;3247;48.946;10.220;2022-12-10T03:37:13;-0.50;99.90
6429;DHT22;3247;48.946;10.220;2022-12-10T03:39:39;-0.50;99.90
6429;DHT22;3247;48.946;10.220;2022-12-10T03:42:05;-0.50;99.90
6429;DHT22;3247;48.946;10.220;2022-12-10T03:44:32;-0.50;99.90
6429;DHT22;3247;48.946;10.220;2022-12-10T03:46:58;-0.60;99.90
6429;DHT22;3247;48.946;10.220;2022-12-10T03:49:23;-0.60;99.90
6429;DHT22;3247;48.946;10.220;2022-12-10T03:51:49;-0.60;99.90
6429;DHT22;3247;48.946;10.220;2022-12-10T03:54:14;-0.50;99.90
6429;DHT22;3247;48.946;10.220;2022-12-10T03:56:40;-0.50;99.90
6429;DHT22;3247;48.946;10.220;2022-12-10T03:59:05;-0.60;99.90
6429;DHT22;3247;48.946;10.220;2022-12-10T04:01:31;-0.60;99.90
6429;DHT22;3247;48.946;10.220;2022-12-10T04:03:56;-0.60;99.90
6429;DHT22;3247;48.946;10.220;2022-12-10T04:06:22;-0.60;99.90
6429;DHT22;3247;48.946;10.220;2022-12-10T04:08:47;-0.70;99.90
6429;DHT22;3247;48.946;10.220;2022-12-10T04:11:13;-0.70;99.90
6429;DHT22;3247;48.946;10.220;2022-12-10T04:13:39;-0.70;99.90
6429;DHT22;3247;48.946;10.220;2022-12-10T04:16:23;-0.80;99.90
6429;DHT22;3247;48.946;10.220;2022-12-10T04:18:56;-0.80;99.90
6429;DHT22;3247;48.946;10.220;2022-12-10T04:21:22;-0.80;99.90
6429;DHT22;3247;48.946;10.220;2022-12-10T04:24:10;-0.80;99.90
6429;DHT22;3247;48.946;10.220;2022-12-10T04:27:12;-0.80;99.90
6429;DHT22;3247;48.946;10.220;2022-12-10T04:29:38;-0.80;99.90
6429;DHT22;3247;48.946;10.220;2022-12-10T04:32:04;-0.80;99.90
6429;DHT22;3247;48.946;10.220;2022-12-10T04:34:30;-0.80;99.90
6429;DHT22;3247;48.946;10.220;2022-12-10T04:36:57;-0.80;99.90
6429;DHT22;3247;48.946;10.220;2022-12-10T04:39:22;-0.80;99.90
6429;DHT22;3247;48.946;10.220;2022-12-10T04:41:48;-0.80;99.90
6429;DHT22;3247;48.946;10.220;2022-12-10T04:44:14;-0.80;99.90
6429;DHT22;3247;48.946;10.220;2022-12-10T04:50:01;-0.80;99.90
6429;DHT22;3247;48.946;10.220;2022-12-10T04:52:27;-0.80;99.90
6429;DHT22;3247;48.946;10.220;2022-12-10T04:54:52;-0.70;99.90
6429;DHT22;3247;48.946;10.220;2022-12-10T04:57:18;-0.70;99.90
6429;DHT22;3247;48.946;10.220;2022-12-10T04:59:43;-0.70;99.90
6429;DHT22;3247;48.946;10.220;2022-12-10T05:02:09;-0.80;99.90
6429;DHT22;3247;48.946;10.220;2022-12-10T05:04:42;-0.80;99.90
6429;DHT22;3247;48.946;10.220;2022-12-10T05:07:08;-0.80;99.90
6429;DHT22;3247;48.946;10.220;2022-12-10T05:09:33;-0.30;99.90
6429;DHT22;3247;48.946;10.220;2022-12-10T05:11:59;-0.80;99.90
6429;DHT22;3247;48.946;10.220;2022-12-10T05:14:24;-0.90;99.90
6429;DHT22;3247;48.946;10.220;2022-12-10T05:19:40;-0.90;99.90
6429;DHT22;3247;48.946;10.220;2022-12-10T05:22:07;-0.90;99.90
6429;DHT22;3247;48.946;10.220;2022-12-10T05:24:51;-0.90;99.90
6429;DHT22;3247;48.946;10.220;2022-12-10T05:27:17;-0.90;99.90
6429;DHT22;3247;48.946;10.220;2022-12-10T05:29:42;-0.90;99.90
6429;DHT22;3247;48.946;10.220;2022-12-10T05:32:08;-0.90;99.90
6429;DHT22;3247;48.946;10.220;2022-12-10T05:34:33;-0.90;99.90
6429;DHT22;3247;48.946;10.220;2022-12-10T05:36:58;-0.90;99.90
6429;DHT22;3247;48.946;10.220;2022-12-10T05:39:24;-0.90;99.90
6429;DHT22;3247;48.946;10.220;2022-12-10T05:41:49;-0.90;99.90
6429;DHT22;3247;48.946;10.220;2022-12-10T05:44:15;-0.90;99.90
6429;DHT22;3247;48.946;10.220;2022-12-10T05:46:40;-0.90;99.90
6429;DHT22;3247;48.946;10.220;2022-12-10T05:49:06;-0.90;99.90
6429;DHT22;3247;48.946;10.220;2022-12-10T05:51:33;-0.30;99.90
6429;DHT22;3247;48.946;10.220;2022-12-10T05:53:59;-0.90;99.90
6429;DHT22;3247;48.946;10.220;2022-12-10T05:56:26;-0.90;99.90
6429;DHT22;3247;48.946;10.220;2022-12-10T05:58:53;-0.10;99.90
6429;DHT22;3247;48.946;10.220;2022-12-10T06:01:20;-0.20;99.90
6429;DHT22;3247;48.946;10.220;2022-12-10T06:03:45;-0.80;99.90
6429;DHT22;3247;48.946;10.220;2022-12-10T06:06:11;-0.80;99.90
6429;DHT22;3247;48.946;10.220;2022-12-10T06:08:37;-0.70;99.90
6429;DHT22;3247;48.946;10.220;2022-12-10T06:11:04;-0.80;99.90
6429;DHT22;3247;48.946;10.220;2022-12-10T06:13:29;-0.80;99.90
6429;DHT22;3247;48.946;10.220;2022-12-10T06:18:58;-0.70;99.90
6429;DHT22;3247;48.946;10.220;2022-12-10T06:21:23;-0.70;99.90
6429;DHT22;3247;48.946;10.220;2022-12-10T06:23:49;-0.70;99.90
6429;DHT22;3247;48.946;10.220;2022-12-10T06:26:17;-0.70;99.90
6429;DHT22;3247;48.946;10.220;2022-12-10T06:28:44;-0.70;99.90
6429;DHT22;3247;48.946;10.220;2022-12-10T06:31:10;-0.70;99.90
6429;DHT22;3247;48.946;10.220;2022-12-10T06:33:36;-0.70;99.90
6429;DHT22;3247;48.946;10.220;2022-12-10T06:36:05;-0.70;99.90
6429;DHT22;3247;48.946;10.220;2022-12-10T06:38:31;-0.70;99.90
6429;DHT22;3247;48.946;10.220;2022-12-10T06:40:56;-0.70;99.90
6429;DHT22;3247;48.946;10.220;2022-12-10T06:43:21;-0.70;99.90
6429;DHT22;3247;48.946;10.220;2022-12-10T06:45:57;-0.70;99.90
6429;DHT22;3247;48.946;10.220;2022-12-10T06:48:22;-0.70;99.90
6429;DHT22;3247;48.946;10.220;2022-12-10T06:50:48;-0.70;99.90
6429;DHT22;3247;48.946;10.220;2022-12-10T06:53:13;-0.70;99.90
6429;DHT22;3247;48.946;10.220;2022-12-10T06:55:39;-0.70;99.90
6429;DHT22;3247;48.946;10.220;2022-12-10T06:58:04;-0.70;99.90
6429;DHT22;3247;48.946;10.220;2022-12-10T07:00:30;-0.70;99.90
6429;DHT22;3247;48.946;10.220;2022-12-10T07:02:56;-0.70;99.90
6429;DHT22;3247;48.946;10.220;2022-12-10T07:05:28;-0.70;99.90
6429;DHT22;3247;48.946;10.220;2022-12-10T07:07:54;-0.70;99.90
6429;DHT22;3247;48.946;10.220;2022-12-10T07:10:19;-0.70;99.90
6429;DHT22;3247;48.946;10.220;2022-12-10T07:12:45;-0.70;99.90
6429;DHT22;3247;48.946;10.220;2022-12-10T07:15:10;-0.70;99.90
6429;DHT22;3247;48.946;10.220;2022-12-10T07:17:36;-0.70;99.90
6429;DHT22;3247;48.946;10.220;2022-12-10T07:20:02;-0.70;99.90
6429;DHT22;3247;48.946;10.220;2022-12-10T07:22:27;-1.20;99.90
6429;DHT22;3247;48.946;10.220;2022-12-10T07:24:53;-0.60;99.90
6429;DHT22;3247;48.946;10.220;2022-12-10T07:27:18;-0.60;99.90
6429;DHT22;3247;48.946;10.220;2022-12-10T07:29:44;-0.60;99.90
6429;DHT22;3247;48.946;10.220;2022-12-10T07:32:09;-0.50;99.90
6429;DHT22;3247;48.946;10.220;2022-12-10T07:34:35;-0.50;99.90
6429;DHT22;3247;48.946;10.220;2022-12-10T07:37:00;-0.50;99.90
6429;DHT22;3247;48.946;10.220;2022-12-10T07:39:26;-0.40;99.90
6429;DHT22;3247;48.946;10.220;2022-12-10T07:41:52;-0.50;99.90
6429;DHT22;3247;48.946;10.220;2022-12-10T07:44:21;-0.50;99.90
6429;DHT22;3247;48.946;10.220;2022-12-10T07:49:53;-0.40;99.90
6429;DHT22;3247;48.946;10.220;2022-12-10T07:52:19;-0.40;99.90
6429;DHT22;3247;48.946;10.220;2022-12-10T07:54:44;-0.40;99.90
6429;DHT22;3247;48.946;10.220;2022-12-10T07:57:10;-0.40;99.90
6429;DHT22;3247;48.946;10.220;2022-12-10T07:59:35;-0.40;99.90
6429;DHT22;3247;48.946;10.220;2022-12-10T08:02:01;-0.30;99.90
6429;DHT22;3247;48.946;10.220;2022-12-10T08:04:29;-0.30;99.90
6429;DHT22;3247;48.946;10.220;2022-12-10T08:06:55;-0.40;99.90
6429;DHT22;3247;48.946;10.220;2022-12-10T08:09:21;-0.40;99.90
6429;DHT22;3247;48.946;10.220;2022-12-10T08:11:47;-0.40;99.90
6429;DHT22;3247;48.946;10.220;2022-12-10T08:14:12;-0.40;99.90
6429;DHT22;3247;48.946;10.220;2022-12-10T08:16:41;-0.40;99.90
6429;DHT22;3247;48.946;10.220;2022-12-10T08:19:06;-0.40;99.90
6429;DHT22;3247;48.946;10.220;2022-12-10T08:21:32;-0.40;99.90
6429;DHT22;3247;48.946;10.220;2022-12-10T08:23:58;-0.40;99.90
6429;DHT22;3247;48.946;10.220;2022-12-10T08:26:26;-0.40;99.90
6429;DHT22;3247;48.946;10.220;2022-12-10T08:28:52;-0.30;99.90
6429;DHT22;3247;48.946;10.220;2022-12-10T08:31:19;-0.30;99.90
6429;DHT22;3247;48.946;10.220;2022-12-10T08:33:45;-0.20;99.90
6429;DHT22;3247;48.946;10.220;2022-12-10T08:36:11;-0.10;99.90
6429;DHT22;3247;48.946;10.220;2022-12-10T08:38:38;0.20;99.90
6429;DHT22;3247;48.946;10.220;2022-12-10T08:41:07;-0.20;99.90
6429;DHT22;3247;48.946;10.220;2022-12-10T08:43:34;-0.20;99.90
6429;DHT22;3247;48.946;10.220;2022-12-10T08:52:06;-0.20;99.90
6429;DHT22;3247;48.946;10.220;2022-12-10T08:54:31;-0.20;99.90
6429;DHT22;3247;48.946;10.220;2022-12-10T08:56:57;-0.10;99.90
6429;DHT22;3247;48.946;10.220;2022-12-10T08:59:22;-0.10;99.90
6429;DHT22;3247;48.946;10.220;2022-12-10T09:01:47;0.00;99.90
6429;DHT22;3247;48.946;10.220;2022-12-10T09:04:13;0.00;99.90
6429;DHT22;3247;48.946;10.220;2022-12-10T09:06:40;-0.10;99.90
6429;DHT22;3247;48.946;10.220;2022-12-10T09:09:06;0.00;99.90
6429;DHT22;3247;48.946;10.220;2022-12-10T09:11:32;0.00;99.90
6429;DHT22;3247;48.946;10.220;2022-12-10T09:13:58;-0.40;99.90
6429;DHT22;3247;48.946;10.220;2022-12-10T09:19:42;0.00;99.90
6429;DHT22;3247;48.946;10.220;2022-12-10T09:22:07;0.10;99.90
6429;DHT22;3247;48.946;10.220;2022-12-10T09:24:33;-0.70;99.90
6429;DHT22;3247;48.946;10.220;2022-12-10T09:26:59;0.20;99.90
6429;DHT22;3247;48.946;10.220;2022-12-10T09:29:25;0.20;99.90
6429;DHT22;3247;48.946;10.220;2022-12-10T09:31:51;0.20;99.90
6429;DHT22;3247;48.946;10.220;2022-12-10T09:34:17;0.30;99.90
6429;DHT22;3247;48.946;10.220;2022-12-10T09:36:43;0.20;99.90
6429;DHT22;3247;48.946;10.220;2022-12-10T09:39:08;1.30;99.90
6429;DHT22;3247;48.946;10.220;2022-12-10T09:44:11;0.40;99.90
6429;DHT22;3247;48.946;10.220;2022-12-10T09:49:46;0.40;99.90
6429;DHT22;3247;48.946;10.220;2022-12-10T09:52:14;0.40;99.90
6429;DHT22;3247;48.946;10.220;2022-12-10T09:57:26;0.60;99.90
6429;DHT22;3247;48.946;10.220;2022-12-10T09:59:52;0.60;99.90
6429;DHT22;3247;48.946;10.220;2022-12-10T10:02:20;0.50;99.90
6429;DHT22;3247;48.946;10.220;2022-12-10T10:04:46;0.60;99.90
6429;DHT22;3247;48.946;10.220;2022-12-10T10:07:17;0.60;99.90
6429;DHT22;3247;48.946;10.220;2022-12-10T10:09:44;0.60;99.90
6429;DHT22;3247;48.946;10.220;2022-12-10T10:12:13;0.60;99.90
6429;DHT22;3247;48.946;10.220;2022-12-10T10:14:39;0.60;99.90
6429;DHT22;3247;48.946;10.220;2022-12-10T10:17:09;0.70;99.90
6429;DHT22;3247;48.946;10.220;2022-12-10T10:19:36;0.10;99.90
6429;DHT22;3247;48.946;10.220;2022-12-10T10:22:04;0.70;99.90
6429;DHT22;3247;48.946;10.220;2022-12-10T10:24:33;0.80;99.90
6429;DHT22;3247;48.946;10.220;2022-12-10T10:27:01;0.90;99.90
6429;DHT22;3247;48.946;10.220;2022-12-10T10:29:35;0.90;99.90
6429;DHT22;3247;48.946;10.220;2022-12-10T10:32:17;0.90;99.90
6429;DHT22;3247;48.946;10.220;2022-12-10T10:34:44;0.90;99.90
6429;DHT22;3247;48.946;10.220;2022-12-10T10:37:26;1.10;99.90
6429;DHT22;3247;48.946;10.220;2022-12-10T10:39:55;1.10;99.90
6429;DHT22;3247;48.946;10.220;2022-12-10T10:42:37;1.10;99.90
6429;DHT22;3247;48.946;10.220;2022-12-10T10:45:05;1.00;99.90
6429;DHT22;3247;48.946;10.220;2022-12-10T10:47:32;1.00;99.90
6429;DHT22;3247;48.946;10.220;2022-12-10T10:49:58;1.10;99.90
6429;DHT22;3247;48.946;10.220;2022-12-10T10:52:27;1.10;99.90
6429;DHT22;3247;48.946;10.220;2022-12-10T10:54:53;1.00;99.90
6429;DHT22;3247;48.946;10.220;2022-12-10T10:57:27;1.00;99.90
6429;DHT22;3247;48.946;10.220;2022-12-10T10:59:55;1.00;99.90
6429;DHT22;3247;48.946;10.220;2022-12-10T11:02:34;1.10;99.90
6429;DHT22;3247;48.946;10.220;2022-12-10T11:05:07;1.10;99.90
6429;DHT22;3247;48.946;10.220;2022-12-10T11:07:34;1.10;99.90
6429;DHT22;3247;48.946;10.220;2022-12-10T11:10:00;1.10;99.90
6429;DHT22;3247;48.946;10.220;2022-12-10T11:14:54;1.20;99.90
6429;DHT22;3247;48.946;10.220;2022-12-10T11:17:21;1.30;99.90
6429;DHT22;3247;48.946;10.220;2022-12-10T11:19:55;1.30;99.90
6429;DHT22;3247;48.946;10.220;2022-12-10T11:22:23;1.50;99.90
6429;DHT22;3247;48.946;10.220;2022-12-10T11:24:49;1.50;99.90
6429;DHT22;3247;48.946;10.220;2022-12-10T11:30:23;1.60;99.90
6429;DHT22;3247;48.946;10.220;2022-12-10T11:40:41;1.50;99.90
6429;DHT22;3247;48.946;10.220;2022-12-10T11:49:00;1.20;99.90
6429;DHT22;3247;48.946;10.220;2022-12-10T11:54:14;1.30;99.90
6429;DHT22;3247;48.946;10.220;2022-12-10T11:56:44;1.30;99.90
6429;DHT22;3247;48.946;10.220;2022-12-10T11:59:23;1.10;99.90
6429;DHT22;3247;48.946;10.220;2022-12-10T12:04:25;1.10;99.90
6429;DHT22;3247;48.946;10.220;2022-12-10T12:07:05;1.10;99.90
6429;DHT22;3247;48.946;10.220;2022-12-10T12:09:45;1.10;99.90
6429;DHT22;3247;48.946;10.220;2022-12-10T12:12:22;1.10;99.90
6429;DHT22;3247;48.946;10.220;2022-12-10T12:14:51;1.20;99.90
6429;DHT22;3247;48.946;10.220;2022-12-10T12:20:29;1.40;99.90
6429;DHT22;3247;48.946;10.220;2022-12-10T12:23:01;1.30;99.90
6429;DHT22;3247;48.946;10.220;2022-12-10T12:25:29;1.20;99.90
6429;DHT22;3247;48.946;10.220;2022-12-10T12:28:04;1.40;99.90
6429;DHT22;3247;48.946;10.220;2022-12-10T12:30:31;1.50;99.90
6429;DHT22;3247;48.946;10.220;2022-12-10T12:33:05;1.60;99.90
6429;DHT22;3247;48.946;10.220;2022-12-10T12:38:07;1.60;99.90
6429;DHT22;3247;48.946;10.220;2022-12-10T12:40:41;1.50;99.90
6429;DHT22;3247;48.946;10.220;2022-12-10T12:43:12;1.50;99.90
6429;DHT22;3247;48.946;10.220;2022-12-10T12:51:40;1.40;99.90
6429;DHT22;3247;48.946;10.220;2022-12-10T12:54:08;1.30;99.90
6429;DHT22;3247;48.946;10.220;2022-12-10T12:59:32;1.00;99.90
6429;DHT22;3247;48.946;10.220;2022-12-10T13:02:08;0.80;99.90
6429;DHT22;3247;48.946;10.220;2022-12-10T13:04:42;0.80;99.90
6429;DHT22;3247;48.946;10.220;2022-12-10T13:09:44;0.70;99.90
6429;DHT22;3247;48.946;10.220;2022-12-10T13:22:59;0.60;99.90
6429;DHT22;3247;48.946;10.220;2022-12-10T13:25:39;0.60;99.90
6429;DHT22;3247;48.946;10.220;2022-12-10T13:31:06;0.60;99.90
6429;DHT22;3247;48.946;10.220;2022-12-10T13:37:02;0.40;99.90
6429;DHT22;3247;48.946;10.220;2022-12-10T13:39:31;0.50;99.90
6429;DHT22;3247;48.946;10.220;2022-12-10T13:50:17;0.30;99.90
6429;DHT22;3247;48.946;10.220;2022-12-10T14:00:22;0.30;99.90
6429;DHT22;3247;48.946;10.220;2022-12-10T14:05:42;0.30;99.90
6429;DHT22;3247;48.946;10.220;2022-12-10T14:08:13;0.20;99.90
6429;DHT22;3247;48.946;10.220;2022-12-10T14:10:42;0.20;99.90
6429;DHT22;3247;48.946;10.220;2022-12-10T14:13:10;0.20;99.90
6429;DHT22;3247;48.946;10.220;2022-12-10T14:18:24;0.20;99.90
6429;DHT22;3247;48.946;10.220;2022-12-10T14:20:52;0.20;99.90
6429;DHT22;3247;48.946;10.220;2022-12-10T14:28:30;0.20;99.90
6429;DHT22;3247;48.946;10.220;2022-12-10T14:30:58;0.10;99.90
6429;DHT22;3247;48.946;10.220;2022-12-10T14:33:24;0.20;99.90
6429;DHT22;3247;48.946;10.220;2022-12-10T14:35:50;0.10;99.90
6429;DHT22;3247;48.946;10.220;2022-12-10T14:38:17;0.10;99.90
6429;DHT22;3247;48.946;10.220;2022-12-10T14:40:44;0.10;99.90
6429;DHT22;3247;48.946;10.220;2022-12-10T14:43:14;0.10;99.90
6429;DHT22;3247;48.946;10.220;2022-12-10T14:45:54;0.10;99.90
6429;DHT22;3247;48.946;10.220;2022-12-10T14:48:21;0.10;99.90
6429;DHT22;3247;48.946;10.220;2022-12-10T14:50:50;1.00;99.90
6429;DHT22;3247;48.946;10.220;2022-12-10T14:53:22;0.10;99.90
6429;DHT22;3247;48.946;10.220;2022-12-10T14:55:49;0.10;99.90
6429;DHT22;3247;48.946;10.220;2022-12-10T14:58:18;0.10;99.90
6429;DHT22;3247;48.946;10.220;2022-12-10T15:00:47;-0.20;99.90
6429;DHT22;3247;48.946;10.220;2022-12-10T15:03:17;0.90;99.90
6429;DHT22;3247;48.946;10.220;2022-12-10T15:05:53;0.30;99.90
6429;DHT22;3247;48.946;10.220;2022-12-10T15:08:19;-0.10;99.90
6429;DHT22;3247;48.946;10.220;2022-12-10T15:10:45;-0.10;99.90
6429;DHT22;3247;48.946;10.220;2022-12-10T15:13:18;0.10;99.90
6429;DHT22;3247;48.946;10.220;2022-12-10T15:21:49;0.00;99.90
6429;DHT22;3247;48.946;10.220;2022-12-10T15:24:25;0.00;99.90
6429;DHT22;3247;48.946;10.220;2022-12-10T15:26:50;0.00;99.90
6429;DHT22;3247;48.946;10.220;2022-12-10T15:31:49;0.00;99.90
6429;DHT22;3247;48.946;10.220;2022-12-10T15:34:18;0.00;99.90
6429;DHT22;3247;48.946;10.220;2022-12-10T15:36:54;-0.10;99.90
6429;DHT22;3247;48.946;10.220;2022-12-10T15:39:23;-0.10;99.90
6429;DHT22;3247;48.946;10.220;2022-12-10T15:41:50;-0.10;99.90
6429;DHT22;3247;48.946;10.220;2022-12-10T15:46:50;-0.10;99.90
6429;DHT22;3247;48.946;10.220;2022-12-10T15:49:17;-0.20;99.90
6429;DHT22;3247;48.946;10.220;2022-12-10T15:51:44;-0.20;99.90
6429;DHT22;3247;48.946;10.220;2022-12-10T15:54:23;-0.20;99.90
6429;DHT22;3247;48.946;10.220;2022-12-10T15:56:52;1.10;99.90
6429;DHT22;3247;48.946;10.220;2022-12-10T15:59:17;-0.20;99.90
6429;DHT22;3247;48.946;10.220;2022-12-10T16:01:43;-0.30;99.90
6429;DHT22;3247;48.946;10.220;2022-12-10T16:04:11;-0.20;99.90
6429;DHT22;3247;48.946;10.220;2022-12-10T16:06:39;-0.30;99.90
6429;DHT22;3247;48.946;10.220;2022-12-10T16:09:05;-0.30;99.90
6429;DHT22;3247;48.946;10.220;2022-12-10T16:11:31;-0.30;99.90
6429;DHT22;3247;48.946;10.220;2022-12-10T16:13:58;-0.40;99.90
6429;DHT22;3247;48.946;10.220;2022-12-10T16:16:28;-0.40;99.90
6429;DHT22;3247;48.946;10.220;2022-12-10T16:18:53;-0.40;99.90
6429;DHT22;3247;48.946;10.220;2022-12-10T16:21:20;-0.40;99.90
6429;DHT22;3247;48.946;10.220;2022-12-10T16:23:46;-0.40;99.90
6429;DHT22;3247;48.946;10.220;2022-12-10T16:28:40;-0.40;99.90
6429;DHT22;3247;48.946;10.220;2022-12-10T16:31:07;-0.40;99.90
6429;DHT22;3247;48.946;10.220;2022-12-10T16:33:36;-0.50;99.90
6429;DHT22;3247;48.946;10.220;2022-12-10T16:36:01;-0.50;99.90
6429;DHT22;3247;48.946;10.220;2022-12-10T16:38:27;-0.50;99.90
6429;DHT22;3247;48.946;10.220;2022-12-10T16:40:53;-0.50;99.90
6429;DHT22;3247;48.946;10.220;2022-12-10T16:43:19;0.50;99.90
6429;DHT22;3247;48.946;10.220;2022-12-10T16:45:45;-0.50;99.90
6429;DHT22;3247;48.946;10.220;2022-12-10T16:48:11;-0.60;99.90
6429;DHT22;3247;48.946;10.220;2022-12-10T16:50:37;0.50;99.90
6429;DHT22;3247;48.946;10.220;2022-12-10T16:55:39;-0.70;99.90
6429;DHT22;3247;48.946;10.220;2022-12-10T16:58:05;-0.60;99.90
6429;DHT22;3247;48.946;10.220;2022-12-10T17:00:32;-0.60;99.90
6429;DHT22;3247;48.946;10.220;2022-12-10T17:02:58;-0.60;99.90
6429;DHT22;3247;48.946;10.220;2022-12-10T17:05:35;-0.60;99.90
6429;DHT22;3247;48.946;10.220;2022-12-10T17:08:02;-0.70;99.90
6429;DHT22;3247;48.946;10.220;2022-12-10T17:10:27;0.50;99.90
6429;DHT22;3247;48.946;10.220;2022-12-10T17:13:12;0.60;99.90
6429;DHT22;3247;48.946;10.220;2022-12-10T17:15:40;-0.70;99.90
6429;DHT22;3247;48.946;10.220;2022-12-10T17:18:08;-0.70;99.90
6429;DHT22;3247;48.946;10.220;2022-12-10T17:20:34;-0.80;99.90
6429;DHT22;3247;48.946;10.220;2022-12-10T17:22:59;-0.70;99.90
6429;DHT22;3247;48.946;10.220;2022-12-10T17:25:26;-0.70;99.90
6429;DHT22;3247;48.946;10.220;2022-12-10T17:27:53;-0.70;99.90
6429;DHT22;3247;48.946;10.220;2022-12-10T17:30:19;-1.30;99.90
6429;DHT22;3247;48.946;10.220;2022-12-10T17:32:44;-0.70;99.90
6429;DHT22;3247;48.946;10.220;2022-12-10T17:35:11;-0.70;99.90
6429;DHT22;3247;48.946;10.220;2022-12-10T17:37:41;-0.80;99.90
6429;DHT22;3247;48.946;10.220;2022-12-10T17:40:15;0.50;99.90
6429;DHT22;3247;48.946;10.220;2022-12-10T17:42:43;-1.40;99.90
6429;DHT22;3247;48.946;10.220;2022-12-10T17:45:14;-0.80;99.90
6429;DHT22;3247;48.946;10.220;2022-12-10T17:47:40;-0.80;99.90
6429;DHT22;3247;48.946;10.220;2022-12-10T17:50:29;-0.80;99.90
6429;DHT22;3247;48.946;10.220;2022-12-10T17:53:04;-0.90;99.90
6429;DHT22;3247;48.946;10.220;2022-12-10T17:55:31;-0.80;99.90
6429;DHT22;3247;48.946;10.220;2022-12-10T17:57:58;-1.80;99.90
6429;DHT22;3247;48.946;10.220;2022-12-10T18:00:24;-1.00;99.90
6429;DHT22;3247;48.946;10.220;2022-12-10T18:02:53;-1.00;99.90
6429;DHT22;3247;48.946;10.220;2022-12-10T18:05:19;-1.00;99.90
6429;DHT22;3247;48.946;10.220;2022-12-10T18:07:44;-1.10;99.90
6429;DHT22;3247;48.946;10.220;2022-12-10T18:10:18;-1.00;99.90
6429;DHT22;3247;48.946;10.220;2022-12-10T18:12:43;-1.10;99.90
6429;DHT22;3247;48.946;10.220;2022-12-10T18:15:19;0.10;99.90
6429;DHT22;3247;48.946;10.220;2022-12-10T18:17:46;-1.30;99.90
6429;DHT22;3247;48.946;10.220;2022-12-10T18:20:22;-1.20;99.90
6429;DHT22;3247;48.946;10.220;2022-12-10T18:22:48;-1.20;99.90
6429;DHT22;3247;48.946;10.220;2022-12-10T18:25:13;-1.30;99.90
6429;DHT22;3247;48.946;10.220;2022-12-10T18:27:39;-0.20;99.90
6429;DHT22;3247;48.946;10.220;2022-12-10T18:30:05;-1.30;99.90